createdAt,value
2022-11-05T00:00:40.385Z,24.85
2022-11-05T00:05:21.089Z,26.63
2022-11-05T00:09:43.076Z,27.08
2022-11-05T00:14:23.796Z,24.80
2022-11-05T00:19:05.228Z,21.65
2022-11-05T00:23:45.605Z,25.95
2022-11-05T00:28:07.246Z,24.80
2022-11-05T00:32:29.258Z,26.15
2022-11-05T00:36:51.132Z,25.75
2022-11-05T00:41:13.343Z,31.00
2022-11-05T00:45:35.320Z,23.52
2022-11-05T00:49:57.227Z,27.58
2022-11-05T00:54:19.159Z,25.85
2022-11-05T00:58:41.081Z,24.65
2022-11-05T01:03:07.794Z,28.52
2022-11-05T01:07:30.040Z,22.38
2022-11-05T01:11:51.983Z,23.27
2022-11-05T01:16:13.967Z,27.90
2022-11-05T01:20:35.936Z,25.52
2022-11-05T01:24:57.961Z,26.85
2022-11-05T01:29:19.960Z,25.95
2022-11-05T01:33:41.889Z,28.48
2022-11-05T01:38:03.884Z,23.83
2022-11-05T01:42:28.678Z,28.42
2022-11-05T01:46:50.683Z,25.70
2022-11-05T01:51:20.300Z,26.90
2022-11-05T01:55:51.926Z,27.10
2022-11-05T02:00:15.981Z,29.23
2022-11-05T02:04:46.006Z,27.70
2022-11-05T02:09:22.409Z,21.27
2022-11-05T02:13:44.590Z,23.40
2022-11-05T02:18:15.755Z,24.08
2022-11-05T02:22:49.378Z,28.50
2022-11-05T02:27:54.283Z,27.33
2022-11-05T02:32:27.158Z,26.92
2022-11-05T02:37:13.107Z,22.60
2022-11-05T02:42:04.938Z,25.95
2022-11-05T02:46:50.326Z,28.52
2022-11-05T02:51:51.398Z,30.40
2022-11-05T02:56:32.947Z,26.23
2022-11-05T03:01:02.024Z,26.30
2022-11-05T03:05:39.651Z,29.80
2022-11-05T03:10:38.306Z,28.83
2022-11-05T03:15:11.871Z,29.63
2022-11-05T03:20:02.048Z,27.23
2022-11-05T03:24:33.113Z,27.55
2022-11-05T03:29:03.519Z,28.52
2022-11-05T03:33:30.994Z,39.65
2022-11-05T03:38:00.669Z,30.15
2022-11-05T03:42:28.362Z,27.63
2022-11-05T03:46:51.843Z,25.60
2022-11-05T03:51:42.692Z,28.27
2022-11-05T03:56:16.068Z,26.70
2022-11-05T04:00:39.075Z,32.45
2022-11-05T04:05:01.260Z,29.02
2022-11-05T04:09:41.907Z,26.92
2022-11-05T04:14:04.094Z,31.83
2022-11-05T04:18:26.076Z,32.80
2022-11-05T04:23:06.693Z,29.58
2022-11-05T04:27:28.619Z,28.50
2022-11-05T04:31:50.696Z,26.80
2022-11-05T04:36:12.251Z,30.45
2022-11-05T04:40:35.010Z,33.13
2022-11-05T04:44:56.969Z,28.92
2022-11-05T04:49:18.802Z,33.78
2022-11-05T04:53:40.688Z,30.88
2022-11-05T04:58:02.591Z,27.30
2022-11-05T05:02:24.607Z,28.15
2022-11-05T05:06:46.455Z,29.95
2022-11-05T05:11:12.432Z,31.80
2022-11-05T05:15:34.298Z,32.35
2022-11-05T05:20:15.201Z,31.70
2022-11-05T05:24:36.909Z,30.88
2022-11-05T05:28:59.192Z,27.45
2022-11-05T05:33:20.871Z,31.10
2022-11-05T05:37:43.159Z,32.35
2022-11-05T05:42:05.149Z,37.65
2022-11-05T05:46:27.131Z,29.52
2022-11-05T05:50:49.021Z,30.27
2022-11-05T05:55:12.717Z,28.42
2022-11-05T05:59:34.628Z,29.90
2022-11-05T06:03:56.604Z,33.53
2022-11-05T06:08:18.575Z,31.02
2022-11-05T06:12:40.383Z,33.97
2022-11-05T06:17:02.270Z,28.00
2022-11-05T06:21:24.272Z,32.28
2022-11-05T06:25:46.193Z,38.75
2022-11-05T06:30:09.233Z,30.92
2022-11-05T06:34:30.885Z,33.05
2022-11-05T06:38:52.831Z,28.90
2022-11-05T06:43:15.063Z,33.15
2022-11-05T06:47:36.995Z,29.20
2022-11-05T06:51:59.084Z,31.42
2022-11-05T06:56:20.837Z,27.35
2022-11-05T07:00:43.053Z,28.70
2022-11-05T07:05:05.341Z,33.25
2022-11-05T07:09:29.821Z,27.52
2022-11-05T07:13:51.524Z,25.90
2022-11-05T07:18:13.492Z,26.33
2022-11-05T07:22:36.358Z,26.58
2022-11-05T07:26:57.967Z,22.90
2022-11-05T07:31:19.870Z,23.70
2022-11-05T07:35:41.794Z,23.38
2022-11-05T07:40:04.333Z,28.92
2022-11-05T07:44:26.040Z,28.17
2022-11-05T07:48:47.980Z,19.27
2022-11-05T07:53:15.218Z,23.65
2022-11-05T07:57:44.916Z,22.75
2022-11-05T08:02:10.409Z,22.75
2022-11-05T08:06:32.207Z,24.50
2022-11-05T08:10:54.022Z,25.15
2022-11-05T08:15:16.285Z,22.45
2022-11-05T08:19:38.133Z,28.45
2022-11-05T08:24:00.037Z,23.35
2022-11-05T08:28:22.402Z,221.50
2022-11-05T08:32:44.120Z,253.43
2022-11-05T08:37:06.053Z,169.15
2022-11-05T08:41:27.818Z,38.78
2022-11-05T08:45:50.307Z,101.10
2022-11-05T08:50:12.061Z,33.40
2022-11-05T08:54:33.923Z,28.88
2022-11-05T08:58:55.865Z,77.10
2022-11-05T09:03:18.369Z,33.55
2022-11-05T09:07:40.410Z,33.20
2022-11-05T09:12:17.671Z,24.40
2022-11-05T09:16:39.537Z,24.25
2022-11-05T09:21:01.343Z,26.08
2022-11-05T09:25:23.759Z,27.00
2022-11-05T09:29:45.636Z,14.25
2022-11-05T09:34:07.562Z,25.17
2022-11-05T09:38:30.837Z,22.77
2022-11-05T09:42:55.038Z,15.73
2022-11-05T09:47:27.219Z,23.00
2022-11-05T09:51:49.092Z,34.17
2022-11-05T09:56:30.871Z,29.85
2022-11-05T10:00:53.439Z,27.02
2022-11-05T10:05:16.084Z,22.50
2022-11-05T10:10:07.834Z,20.92
2022-11-05T10:14:44.419Z,26.23
2022-11-05T10:19:24.306Z,20.75
2022-11-05T10:23:47.628Z,18.17
2022-11-05T10:28:19.306Z,20.70
2022-11-05T10:32:42.858Z,17.88
2022-11-05T10:37:05.138Z,20.80
2022-11-05T10:42:08.261Z,18.60
2022-11-05T10:46:42.304Z,31.83
2022-11-05T10:51:04.466Z,21.85
2022-11-05T10:55:44.706Z,17.88
2022-11-05T11:00:21.845Z,20.85
2022-11-05T11:04:43.899Z,18.52
2022-11-05T11:09:28.955Z,16.63
2022-11-05T11:14:12.624Z,13.40
2022-11-05T11:18:40.547Z,11.88
2022-11-05T11:23:05.462Z,13.05
2022-11-05T11:27:33.350Z,14.07
2022-11-05T11:31:57.240Z,12.27
2022-11-05T11:36:24.895Z,13.30
2022-11-05T11:40:46.899Z,12.02
2022-11-05T11:45:34.139Z,14.40
2022-11-05T11:49:59.010Z,12.68
2022-11-05T11:54:28.865Z,10.60
2022-11-05T11:58:56.617Z,13.95
2022-11-05T12:03:43.756Z,15.18
2022-11-05T12:08:27.617Z,15.27
2022-11-05T12:14:08.238Z,17.45
2022-11-05T12:18:54.731Z,19.50
2022-11-05T12:23:59.713Z,9.27
2022-11-05T12:29:17.378Z,15.77
2022-11-05T12:33:48.801Z,10.63
2022-11-05T12:39:00.500Z,17.60
2022-11-05T12:43:50.330Z,14.88
2022-11-05T12:48:41.369Z,12.27
2022-11-05T12:53:41.872Z,18.65
2022-11-05T12:58:51.076Z,15.50
2022-11-05T13:03:34.884Z,13.18
2022-11-05T13:08:40.899Z,17.75
2022-11-05T13:13:23.182Z,18.48
2022-11-05T13:18:00.056Z,21.20
2022-11-05T13:22:39.728Z,16.90
2022-11-05T13:27:19.193Z,10.20
2022-11-05T13:32:08.233Z,18.08
2022-11-05T13:37:09.866Z,10.15
2022-11-05T13:42:18.446Z,9.32
2022-11-05T13:46:59.604Z,13.30
2022-11-05T13:51:54.719Z,16.75
2022-11-05T13:56:25.775Z,19.08
2022-11-05T14:01:06.398Z,13.63
2022-11-05T14:05:38.772Z,11.70
2022-11-05T14:10:24.787Z,16.45
2022-11-05T14:14:58.480Z,13.43
2022-11-05T14:19:21.238Z,24.20
2022-11-05T14:23:52.216Z,10.52
2022-11-05T14:28:35.302Z,14.80
2022-11-05T14:33:13.681Z,12.13
2022-11-05T14:37:58.336Z,13.82
2022-11-05T14:42:31.771Z,18.35
2022-11-05T14:47:02.056Z,17.90
2022-11-05T14:51:31.694Z,16.20
2022-11-05T14:56:19.684Z,15.82
2022-11-05T15:00:47.456Z,12.25
2022-11-05T15:05:48.648Z,19.60
2022-11-05T15:10:17.239Z,16.90
2022-11-05T15:15:01.341Z,15.68
2022-11-05T15:19:32.200Z,12.10
2022-11-05T15:23:56.852Z,16.00
2022-11-05T15:28:48.010Z,12.32
2022-11-05T15:33:21.244Z,14.38
2022-11-05T15:37:52.547Z,15.85
2022-11-05T15:42:24.398Z,15.82
2022-11-05T15:46:46.171Z,17.05
2022-11-05T15:51:10.212Z,21.30
2022-11-05T15:55:32.957Z,31.40
2022-11-05T15:59:55.256Z,23.08
2022-11-05T16:04:29.286Z,26.73
2022-11-05T16:08:51.752Z,20.38
2022-11-05T16:13:32.919Z,27.05
2022-11-05T16:18:00.570Z,20.95
2022-11-05T16:22:23.186Z,17.08
2022-11-05T16:27:02.375Z,18.50
2022-11-05T16:31:26.986Z,28.52
2022-11-05T16:35:58.614Z,22.65
2022-11-05T16:40:25.319Z,27.20
2022-11-05T16:44:48.838Z,28.80
2022-11-05T16:49:13.778Z,22.10
2022-11-05T16:53:35.929Z,24.50
2022-11-05T16:57:58.041Z,27.63
2022-11-05T17:02:20.521Z,32.28
2022-11-05T17:06:43.969Z,36.45
2022-11-05T17:11:06.518Z,30.02
2022-11-05T17:15:35.673Z,25.15
2022-11-05T17:19:58.141Z,30.75
2022-11-05T17:24:19.745Z,26.88
2022-11-05T17:28:42.247Z,31.08
2022-11-05T17:33:04.686Z,29.52
2022-11-05T17:37:27.188Z,37.55
2022-11-05T17:41:48.998Z,41.35
2022-11-05T17:46:14.194Z,37.15
2022-11-05T17:50:43.990Z,34.37
2022-11-05T17:55:16.195Z,30.63
2022-11-05T17:59:37.868Z,31.75
2022-11-05T18:04:05.411Z,43.38
2022-11-05T18:08:30.645Z,57.58
2022-11-05T18:12:53.269Z,38.65
2022-11-05T18:17:15.417Z,32.45
2022-11-05T18:21:42.272Z,48.65
2022-11-05T18:26:13.836Z,36.78
2022-11-05T18:30:39.371Z,42.28
2022-11-05T18:35:03.002Z,39.63
2022-11-05T18:39:25.043Z,38.88
2022-11-05T18:43:47.595Z,40.97
2022-11-05T18:48:10.569Z,36.88
2022-11-05T18:52:33.211Z,34.72
2022-11-05T18:56:54.896Z,36.40
2022-11-05T19:01:27.406Z,32.42
2022-11-05T19:05:49.140Z,33.30
2022-11-05T19:10:11.184Z,39.22
2022-11-05T19:14:33.393Z,37.83
2022-11-05T19:18:59.388Z,35.38
2022-11-05T19:23:21.171Z,35.83
2022-11-05T19:27:44.143Z,40.97
2022-11-05T19:32:06.128Z,35.03
2022-11-05T19:36:28.068Z,40.55
2022-11-05T19:40:50.334Z,42.97
2022-11-05T19:45:38.338Z,41.55
2022-11-05T19:49:53.987Z,34.75
2022-11-05T19:54:16.103Z,36.42
2022-11-05T19:58:38.324Z,43.00
2022-11-05T20:03:00.164Z,39.92
2022-11-05T20:07:21.960Z,41.40
2022-11-05T20:11:45.122Z,44.65
2022-11-05T20:16:07.067Z,41.60
2022-11-05T20:20:29.536Z,38.13
2022-11-05T20:24:51.218Z,41.97
2022-11-05T20:29:13.516Z,41.78
2022-11-05T20:33:35.516Z,43.55
2022-11-05T20:37:57.211Z,36.38
2022-11-05T20:42:19.134Z,39.78
2022-11-05T20:46:40.986Z,33.92
2022-11-05T20:51:12.575Z,36.75
2022-11-05T20:55:44.634Z,40.47
2022-11-05T21:00:07.842Z,37.90
2022-11-05T21:04:29.877Z,34.83
2022-11-05T21:08:52.536Z,46.78
2022-11-05T21:13:14.864Z,41.65
2022-11-05T21:17:37.658Z,44.60
2022-11-05T21:21:59.655Z,35.67
2022-11-05T21:26:21.758Z,48.97
2022-11-05T21:30:46.018Z,39.80
2022-11-05T21:35:08.304Z,44.28
2022-11-05T21:39:30.306Z,39.45
2022-11-05T21:43:51.980Z,35.65
2022-11-05T21:48:15.444Z,42.35
2022-11-05T21:52:56.482Z,34.65
2022-11-05T21:57:37.523Z,36.72
2022-11-05T22:02:02.556Z,34.88
2022-11-05T22:06:25.200Z,34.38
2022-11-05T22:10:46.978Z,41.60
2022-11-05T22:15:09.640Z,34.10
2022-11-05T22:19:31.351Z,31.77
2022-11-05T22:23:53.812Z,34.53
2022-11-05T22:28:16.032Z,36.10
2022-11-05T22:32:39.106Z,38.53
2022-11-05T22:37:00.984Z,40.92
2022-11-05T22:41:23.297Z,34.28
2022-11-05T22:45:45.742Z,41.17
2022-11-05T22:50:08.207Z,36.33
2022-11-05T22:54:33.819Z,38.33
2022-11-05T22:58:58.776Z,34.97
2022-11-05T23:03:20.890Z,40.72
2022-11-05T23:08:01.355Z,33.80
2022-11-05T23:12:28.160Z,33.67
2022-11-05T23:17:08.738Z,34.10
2022-11-05T23:21:49.322Z,37.65
2022-11-05T23:26:29.536Z,36.28
2022-11-05T23:31:09.936Z,34.53
2022-11-05T23:35:50.152Z,42.03
2022-11-05T23:40:24.254Z,34.58
2022-11-05T23:45:05.075Z,40.30
2022-11-05T23:49:28.044Z,32.30
2022-11-05T23:53:51.505Z,35.00
2022-11-05T23:58:13.912Z,36.92
